Time;durP1;ratioP1;P1;durP2;ratioP2;P2;SDS_P1;SDS_P2;PMS_P1;PMS_P2;Temp;Humidity;BMP_temperature;BMP_pressure;BME280_temperature;BME280_humidity;BME280_pressure;Samples;Min_cycle;Max_cycle;Signal;HPM_P1;HPM_P2
2022/08/08 00:00:01;;;;;;;2.67;2.40;;;;;;;;;;5113392;28;20481;-63
2022/08/08 00:02:30;;;;;;;2.33;2.23;;;;;;;;;;5113326;28;20481;-63
2022/08/08 00:04:59;;;;;;;3.20;2.50;;;;;;;;;;5113178;28;20452;-63
2022/08/08 00:07:29;;;;;;;2.80;2.60;;;;;;;;;;5113386;28;20445;-64
2022/08/08 00:10:03;;;;;;;2.80;2.53;;;;;;;;;;5113152;28;20541;-63
2022/08/08 00:12:38;;;;;;;4.30;2.77;;;;;;;;;;5113265;28;20803;-63
2022/08/08 00:15:10;;;;;;;3.27;3.07;;;;;;;;;;5113209;28;20456;-64
2022/08/08 00:17:41;;;;;;;2.60;2.50;;;;;;;;;;5113099;28;20449;-64
2022/08/08 00:20:09;;;;;;;3.40;3.10;;;;;;;;;;5113228;28;20937;-64
2022/08/08 00:22:40;;;;;;;3.10;2.77;;;;;;;;;;5113101;28;20449;-63
2022/08/08 00:25:09;;;;;;;3.70;3.30;;;;;;;;;;5113174;28;20453;-63
2022/08/08 00:27:38;;;;;;;2.50;2.30;;;;;;;;;;5113011;28;20427;-64
2022/08/08 00:30:06;;;;;;;3.37;3.13;;;;;;;;;;5112986;28;20426;-63
2022/08/08 00:32:36;;;;;;;3.40;2.47;;;;;;;;;;5113181;28;20826;-63
2022/08/08 00:35:19;;;;;;;2.83;2.53;;;;;;;;;;5113160;28;20474;-63
2022/08/08 00:37:52;;;;;;;2.80;2.57;;;;;;;;;;5113055;28;20420;-63
2022/08/08 00:40:27;;;;;;;3.07;2.77;;;;;;;;;;5112811;28;20455;-63
2022/08/08 00:43:08;;;;;;;2.90;2.70;;;;;;;;;;5112901;28;20999;-64
2022/08/08 00:45:48;;;;;;;2.60;2.40;;;;;;;;;;5112988;28;20460;-63
2022/08/08 00:48:44;;;;;;;3.47;3.17;;;;;;;;;;5115902;28;20459;-63
2022/08/08 00:51:30;;;;;;;3.03;2.73;;;;;;;;;;5117000;28;20446;-63
2022/08/08 00:54:15;;;;;;;3.20;2.90;;;;;;;;;;5116762;28;20455;-63
2022/08/08 00:57:00;;;;;;;2.97;2.77;;;;;;;;;;5116670;28;20917;-63
2022/08/08 00:59:45;;;;;;;7.63;3.40;;;;;;;;;;5116701;28;20481;-64
2022/08/08 01:02:27;;;;;;;3.00;2.80;;;;;;;;;;5116656;28;20441;-63
2022/08/08 01:05:09;;;;;;;2.87;2.67;;;;;;;;;;5116562;28;20426;-63
2022/08/08 01:07:47;;;;;;;2.77;2.57;;;;;;;;;;5099839;27;20519;-63
2022/08/08 01:10:26;;;;;;;2.77;2.57;;;;;;;;;;5116636;28;20474;-63
2022/08/08 01:13:17;;;;;;;4.57;3.10;;;;;;;;;;5116407;28;20419;-63
2022/08/08 01:16:02;;;;;;;4.20;3.57;;;;;;;;;;5116288;28;20800;-63
2022/08/08 01:18:43;;;;;;;3.70;2.80;;;;;;;;;;5116321;28;20527;-63
2022/08/08 01:21:19;;;;;;;3.67;2.53;;;;;;;;;;5116337;28;20749;-63
2022/08/08 01:24:07;;;;;;;3.10;2.83;;;;;;;;;;5116121;28;20456;-63
2022/08/08 01:26:54;;;;;;;4.70;2.90;;;;;;;;;;5082027;28;20424;-64
2022/08/08 01:29:37;;;;;;;3.03;2.80;;;;;;;;;;5116128;28;20796;-63
2022/08/08 01:32:22;;;;;;;4.07;2.67;;;;;;;;;;5116029;28;20465;-63
2022/08/08 01:35:02;;;;;;;3.47;3.27;;;;;;;;;;5116303;28;20427;-63
2022/08/08 01:37:49;;;;;;;3.07;2.87;;;;;;;;;;5116039;28;20511;-63
2022/08/08 01:40:22;;;;;;;2.77;2.57;;;;;;;;;;5115814;28;20460;-63
2022/08/08 01:42:51;;;;;;;3.27;2.97;;;;;;;;;;5115728;28;20450;-63
2022/08/08 01:45:36;;;;;;;4.00;3.70;;;;;;;;;;5115820;28;20452;-64
2022/08/08 01:48:06;;;;;;;3.00;2.80;;;;;;;;;;5115651;28;20474;-63
2022/08/08 01:50:39;;;;;;;4.90;2.70;;;;;;;;;;5115766;28;20431;-63
2022/08/08 01:53:11;;;;;;;6.13;3.40;;;;;;;;;;5115556;27;20457;-63
2022/08/08 01:55:42;;;;;;;3.90;3.57;;;;;;;;;;5115226;28;20424;-63
2022/08/08 01:58:27;;;;;;;3.70;3.40;;;;;;;;;;5115243;27;20448;-63
2022/08/08 02:00:56;;;;;;;3.00;2.83;;;;;;;;;;5115617;28;20814;-63
2022/08/08 02:03:31;;;;;;;4.93;3.30;;;;;;;;;;5115235;28;20459;-64
2022/08/08 02:06:08;;;;;;;4.13;3.00;;;;;;;;;;5115359;28;20927;-63
2022/08/08 02:08:42;;;;;;;2.63;2.50;;;;;;;;;;5115409;28;20451;-63
2022/08/08 02:11:14;;;;;;;3.43;2.97;;;;;;;;;;5115344;28;20426;-63
2022/08/08 02:13:46;;;;;;;4.90;3.37;;;;;;;;;;5115167;28;20563;-63
2022/08/08 02:16:17;;;;;;;3.40;3.10;;;;;;;;;;5115123;28;20424;-64
2022/08/08 02:18:48;;;;;;;3.10;2.90;;;;;;;;;;5115209;28;20420;-64
2022/08/08 02:24:07;;;;;;;5.10;3.30;;;;;;;;;;5114969;28;20857;-63
2022/08/08 02:26:36;;;;;;;3.37;2.90;;;;;;;;;;5114872;28;20445;-64
2022/08/08 02:29:11;;;;;;;3.90;3.60;;;;;;;;;;5114996;28;20449;-64
2022/08/08 02:31:54;;;;;;;5.73;3.40;;;;;;;;;;5114984;28;20566;-63
2022/08/08 02:34:30;;;;;;;3.20;3.00;;;;;;;;;;5114753;28;20467;-63
2022/08/08 02:37:02;;;;;;;5.03;3.60;;;;;;;;;;5114676;28;20438;-64
2022/08/08 02:39:46;;;;;;;4.07;3.30;;;;;;;;;;5114732;28;20490;-63
2022/08/08 02:42:32;;;;;;;5.53;3.83;;;;;;;;;;5114731;28;20426;-63
2022/08/08 02:45:05;;;;;;;3.37;3.17;;;;;;;;;;5114523;28;20449;-63
2022/08/08 02:47:47;;;;;;;3.70;3.40;;;;;;;;;;5114509;28;20788;-63
2022/08/08 02:50:26;;;;;;;3.83;3.53;;;;;;;;;;5114655;28;20422;-63
2022/08/08 02:53:04;;;;;;;3.57;3.27;;;;;;;;;;5114525;28;20449;-63
2022/08/08 02:55:49;;;;;;;7.80;3.50;;;;;;;;;;5114336;28;20512;-64
2022/08/08 02:58:39;;;;;;;4.00;3.60;;;;;;;;;;5114261;28;20450;-63
2022/08/08 03:01:35;;;;;;;4.03;3.43;;;;;;;;;;5114359;28;20550;-63
2022/08/08 03:04:24;;;;;;;4.03;3.60;;;;;;;;;;5114106;28;20441;-63
2022/08/08 03:07:10;;;;;;;4.13;3.73;;;;;;;;;;5114315;28;20453;-63
2022/08/08 03:09:56;;;;;;;3.97;3.67;;;;;;;;;;5113338;28;20757;-63
2022/08/08 03:12:34;;;;;;;5.00;4.50;;;;;;;;;;5114030;28;20415;-63
2022/08/08 03:15:05;;;;;;;3.97;3.67;;;;;;;;;;5114172;28;20423;-64
2022/08/08 03:17:36;;;;;;;4.00;3.70;;;;;;;;;;5114168;28;20503;-63
2022/08/08 03:20:05;;;;;;;3.83;3.53;;;;;;;;;;5113914;28;20842;-62
2022/08/08 03:22:32;;;;;;;4.40;4.07;;;;;;;;;;5113822;28;20426;-63
2022/08/08 03:25:02;;;;;;;5.90;3.93;;;;;;;;;;5113684;28;20446;-63
2022/08/08 03:27:33;;;;;;;4.37;3.30;;;;;;;;;;5113928;28;20819;-63
2022/08/08 03:30:03;;;;;;;4.33;3.93;;;;;;;;;;5113877;28;20502;-63
2022/08/08 03:35:15;;;;;;;3.73;3.03;;;;;;;;;;5113600;28;20829;-63
2022/08/08 03:37:42;;;;;;;4.20;3.80;;;;;;;;;;5113846;28;20931;-63
2022/08/08 03:40:11;;;;;;;4.33;3.90;;;;;;;;;;5113657;28;20488;-63
2022/08/08 03:42:38;;;;;;;4.40;4.00;;;;;;;;;;5113598;28;20538;-63
2022/08/08 03:45:18;;;;;;;4.17;3.77;;;;;;;;;;5113565;28;20446;-63
2022/08/08 03:47:45;;;;;;;3.60;3.40;;;;;;;;;;5113263;28;20505;-63
2022/08/08 03:50:19;;;;;;;6.73;4.17;;;;;;;;;;5113636;28;20423;-62
2022/08/08 03:52:46;;;;;;;4.40;3.90;;;;;;;;;;5113483;28;20916;-62
2022/08/08 03:55:15;;;;;;;4.07;3.67;;;;;;;;;;5113481;28;20540;-63
2022/08/08 03:57:46;;;;;;;5.43;4.10;;;;;;;;;;5113368;28;20400;-63
2022/08/08 04:00:14;;;;;;;5.10;4.30;;;;;;;;;;5113204;28;20466;-63
2022/08/08 04:02:41;;;;;;;4.77;4.33;;;;;;;;;;5113394;28;20427;-63
2022/08/08 04:05:08;;;;;;;9.23;5.63;;;;;;;;;;5113475;28;20420;-63
2022/08/08 04:07:38;;;;;;;4.57;4.17;;;;;;;;;;5113286;28;20450;-63
2022/08/08 04:10:06;;;;;;;10.07;4.20;;;;;;;;;;5113274;28;20796;-63
2022/08/08 04:12:34;;;;;;;3.93;3.63;;;;;;;;;;5113203;28;20441;-62
2022/08/08 04:15:01;;;;;;;4.30;3.40;;;;;;;;;;5113072;28;20541;-63
2022/08/08 04:17:28;;;;;;;4.37;3.97;;;;;;;;;;5113295;28;20449;-63
2022/08/08 04:19:56;;;;;;;4.13;3.83;;;;;;;;;;5113155;28;20534;-63
2022/08/08 04:22:25;;;;;;;7.07;4.30;;;;;;;;;;5116761;28;20451;-63
2022/08/08 04:24:52;;;;;;;10.23;5.33;;;;;;;;;;5117130;28;20842;-62
2022/08/08 04:27:18;;;;;;;8.97;4.30;;;;;;;;;;5117178;28;20776;-63
2022/08/08 04:29:47;;;;;;;10.03;4.27;;;;;;;;;;5117425;28;20507;-63
2022/08/08 04:32:14;;;;;;;3.90;3.60;;;;;;;;;;5117100;28;20450;-63
2022/08/08 04:34:41;;;;;;;5.07;3.80;;;;;;;;;;5117177;28;20819;-63
2022/08/08 04:37:08;;;;;;;4.57;3.40;;;;;;;;;;5117056;28;20420;-62
2022/08/08 04:39:35;;;;;;;7.17;4.60;;;;;;;;;;5117008;28;20473;-64
2022/08/08 04:42:02;;;;;;;7.20;4.10;;;;;;;;;;5117011;28;20421;-62
2022/08/08 04:44:29;;;;;;;4.90;4.40;;;;;;;;;;5117091;28;20446;-63
2022/08/08 04:46:57;;;;;;;4.97;3.80;;;;;;;;;;5116810;28;20473;-62
2022/08/08 04:49:24;;;;;;;6.20;4.23;;;;;;;;;;5116974;28;20524;-62
2022/08/08 04:51:51;;;;;;;4.90;4.47;;;;;;;;;;5116755;28;20473;-62
2022/08/08 04:54:18;;;;;;;10.40;4.60;;;;;;;;;;5116640;28;20445;-62
2022/08/08 04:56:45;;;;;;;4.30;3.97;;;;;;;;;;5116606;28;20786;-63
2022/08/08 04:59:12;;;;;;;4.53;4.10;;;;;;;;;;5116789;28;20456;-62
2022/08/08 05:01:39;;;;;;;4.60;4.20;;;;;;;;;;5116533;28;20452;-63
2022/08/08 05:04:07;;;;;;;5.40;4.80;;;;;;;;;;5116464;28;20446;-62
2022/08/08 05:06:34;;;;;;;4.50;3.97;;;;;;;;;;5116428;28;20441;-62
2022/08/08 05:09:01;;;;;;;5.40;4.50;;;;;;;;;;5116392;28;20933;-62
2022/08/08 05:11:28;;;;;;;4.43;4.00;;;;;;;;;;5116576;28;20557;-62
2022/08/08 05:13:55;;;;;;;4.30;4.00;;;;;;;;;;5116288;28;20419;-63
2022/08/08 05:16:22;;;;;;;9.80;4.67;;;;;;;;;;5116327;28;20422;-62
2022/08/08 05:18:49;;;;;;;3.63;3.33;;;;;;;;;;5116266;28;20417;-62
2022/08/08 05:21:17;;;;;;;8.17;3.90;;;;;;;;;;5116182;28;20462;-62
2022/08/08 05:23:44;;;;;;;5.93;4.53;;;;;;;;;;5116032;28;20450;-62
2022/08/08 05:26:11;;;;;;;4.47;4.07;;;;;;;;;;5116214;28;20442;-62
2022/08/08 05:28:38;;;;;;;3.73;3.43;;;;;;;;;;5116153;27;20467;-62
2022/08/08 05:31:05;;;;;;;4.33;4.00;;;;;;;;;;5115832;28;20446;-62
2022/08/08 05:33:32;;;;;;;5.13;3.90;;;;;;;;;;5115069;28;20445;-62
2022/08/08 05:36:01;;;;;;;3.70;3.40;;;;;;;;;;5115799;28;20445;-62
2022/08/08 05:38:30;;;;;;;5.37;4.13;;;;;;;;;;5116056;28;20449;-62
2022/08/08 05:40:58;;;;;;;4.47;3.70;;;;;;;;;;5115818;28;20546;-62
2022/08/08 05:43:26;;;;;;;5.13;3.60;;;;;;;;;;5115704;28;20450;-62
2022/08/08 05:45:54;;;;;;;3.50;3.30;;;;;;;;;;5115769;28;20441;-62
2022/08/08 05:48:21;;;;;;;3.67;3.37;;;;;;;;;;5115415;28;20452;-62
2022/08/08 05:50:49;;;;;;;4.20;3.90;;;;;;;;;;5115462;28;20452;-62
2022/08/08 05:53:15;;;;;;;3.97;3.33;;;;;;;;;;5115542;28;20412;-63
2022/08/08 05:55:45;;;;;;;3.57;3.33;;;;;;;;;;5115514;28;20519;-62
2022/08/08 05:58:12;;;;;;;3.90;3.57;;;;;;;;;;5115406;28;20452;-62
2022/08/08 06:00:39;;;;;;;6.80;3.80;;;;;;;;;;5115272;28;20469;-63
2022/08/08 06:03:12;;;;;;;5.93;3.37;;;;;;;;;;5115172;28;20630;-63
2022/08/08 06:05:41;;;;;;;3.60;2.90;;;;;;;;;;5115400;28;20439;-63
2022/08/08 06:08:08;;;;;;;3.37;3.10;;;;;;;;;;5115143;28;20441;-62
2022/08/08 06:10:35;;;;;;;3.63;3.43;;;;;;;;;;5115210;28;20528;-63
2022/08/08 06:13:03;;;;;;;3.60;2.83;;;;;;;;;;5115067;28;20441;-63
2022/08/08 06:15:30;;;;;;;4.03;3.33;;;;;;;;;;5114982;28;20533;-63
2022/08/08 06:17:58;;;;;;;8.93;3.83;;;;;;;;;;5114918;28;20910;-63
2022/08/08 06:20:25;;;;;;;3.80;3.47;;;;;;;;;;5114998;28;20755;-63
2022/08/08 06:22:52;;;;;;;4.33;3.20;;;;;;;;;;5114627;28;20945;-63
2022/08/08 06:25:19;;;;;;;3.60;2.67;;;;;;;;;;5114921;28;20430;-63
2022/08/08 06:27:47;;;;;;;3.53;3.23;;;;;;;;;;5114811;28;20498;-62
2022/08/08 06:30:17;;;;;;;4.63;3.17;;;;;;;;;;5114778;28;20445;-63
2022/08/08 06:32:45;;;;;;;3.73;3.17;;;;;;;;;;5114870;28;20445;-62
2022/08/08 06:35:14;;;;;;;3.93;2.97;;;;;;;;;;5114753;28;20449;-63
2022/08/08 06:37:44;;;;;;;3.80;3.40;;;;;;;;;;5114660;28;20446;-63
2022/08/08 06:40:13;;;;;;;3.83;3.10;;;;;;;;;;5114539;28;20482;-63
2022/08/08 06:42:41;;;;;;;5.30;2.90;;;;;;;;;;5114418;28;20541;-63
2022/08/08 06:45:08;;;;;;;3.23;2.93;;;;;;;;;;5114667;28;20766;-63
2022/08/08 06:47:36;;;;;;;4.60;3.20;;;;;;;;;;5114334;28;20475;-63
2022/08/08 06:50:04;;;;;;;3.60;3.30;;;;;;;;;;5114329;28;20541;-63
2022/08/08 06:52:32;;;;;;;3.00;2.73;;;;;;;;;;5114339;28;20796;-63
2022/08/08 06:55:01;;;;;;;4.03;2.90;;;;;;;;;;5114146;28;20450;-63
2022/08/08 06:57:28;;;;;;;3.67;2.70;;;;;;;;;;5114037;28;20750;-63
2022/08/08 06:59:54;;;;;;;2.57;2.30;;;;;;;;;;5114164;28;20445;-63
2022/08/08 07:02:23;;;;;;;3.07;2.87;;;;;;;;;;5114306;28;20999;-63
2022/08/08 07:04:54;;;;;;;4.83;3.00;;;;;;;;;;5113982;28;20437;-63
2022/08/08 07:07:27;;;;;;;3.23;2.93;;;;;;;;;;5113907;28;20445;-63
2022/08/08 07:10:01;;;;;;;3.23;2.93;;;;;;;;;;5113908;28;20786;-63
2022/08/08 07:12:32;;;;;;;2.63;2.43;;;;;;;;;;5114002;28;20804;-63
2022/08/08 07:15:02;;;;;;;3.00;2.80;;;;;;;;;;5113985;28;20877;-63
2022/08/08 07:17:31;;;;;;;3.93;2.77;;;;;;;;;;5113853;28;20533;-63
2022/08/08 07:20:03;;;;;;;2.90;2.70;;;;;;;;;;5113377;28;20873;-61
2022/08/08 07:22:36;;;;;;;2.43;2.23;;;;;;;;;;5113646;28;20450;-58
2022/08/08 07:25:05;;;;;;;3.03;2.40;;;;;;;;;;5113798;28;20498;-60
2022/08/08 07:27:35;;;;;;;3.47;2.70;;;;;;;;;;5113551;28;20937;-61
2022/08/08 07:30:02;;;;;;;3.00;2.70;;;;;;;;;;5113284;28;20449;-60
2022/08/08 07:32:29;;;;;;;3.30;3.00;;;;;;;;;;5113471;28;20794;-59
2022/08/08 07:34:56;;;;;;;2.40;2.30;;;;;;;;;;5113292;28;20473;-61
2022/08/08 07:37:25;;;;;;;2.97;2.77;;;;;;;;;;5114145;28;20452;-63
2022/08/08 07:39:53;;;;;;;3.53;2.80;;;;;;;;;;5114541;27;20446;-62
2022/08/08 07:42:21;;;;;;;3.50;2.60;;;;;;;;;;5118070;27;20567;-62
2022/08/08 07:44:48;;;;;;;2.97;2.77;;;;;;;;;;5113049;28;20846;-65
2022/08/08 07:47:15;;;;;;;3.13;2.75;;;;;;;;;;5112163;28;20446;-59
2022/08/08 07:49:42;;;;;;;2.88;2.50;;;;;;;;;;5112896;28;20956;-62
2022/08/08 07:52:11;;;;;;;2.90;2.37;;;;;;;;;;5113101;28;20194;-61
2022/08/08 07:54:43;;;;;;;2.85;2.65;;;;;;;;;;5112965;28;20914;-61
2022/08/08 07:57:16;;;;;;;2.85;2.22;;;;;;;;;;5119717;27;20453;-60
2022/08/08 07:59:46;;;;;;;2.73;2.50;;;;;;;;;;5133638;27;20191;-60
2022/08/08 08:02:15;;;;;;;2.33;2.23;;;;;;;;;;5133832;27;20555;-59
2022/08/08 08:04:45;;;;;;;5.93;2.80;;;;;;;;;;5133473;28;20958;-59
2022/08/08 08:07:12;;;;;;;2.30;2.10;;;;;;;;;;5133922;28;20444;-59
2022/08/08 08:09:41;;;;;;;3.87;2.37;;;;;;;;;;5133594;28;20447;-59
2022/08/08 08:12:10;;;;;;;3.20;1.80;;;;;;;;;;5133618;28;21011;-59
2022/08/08 08:14:47;;;;;;;2.87;2.67;;;;;;;;;;5133347;28;20959;-60
2022/08/08 08:17:16;;;;;;;2.60;2.40;;;;;;;;;;5133465;28;20448;-60
2022/08/08 08:19:45;;;;;;;2.00;1.90;;;;;;;;;;5133650;28;20444;-60
2022/08/08 08:22:12;;;;;;;4.40;2.43;;;;;;;;;;5133388;28;20487;-61
2022/08/08 08:24:40;;;;;;;4.50;2.50;;;;;;;;;;5133202;28;20448;-61
2022/08/08 08:27:07;;;;;;;2.53;2.33;;;;;;;;;;5133354;28;20441;-61
2022/08/08 08:29:34;;;;;;;2.77;2.57;;;;;;;;;;5133616;28;20445;-60
2022/08/08 08:32:01;;;;;;;4.20;2.73;;;;;;;;;;5133477;28;20447;-60
2022/08/08 08:34:28;;;;;;;2.60;2.40;;;;;;;;;;5129777;28;20438;-59
2022/08/08 08:36:55;;;;;;;5.60;2.30;;;;;;;;;;5126407;28;20436;-62
2022/08/08 08:39:22;;;;;;;2.97;2.43;;;;;;;;;;5118242;28;20487;-62
2022/08/08 08:41:51;;;;;;;2.40;2.07;;;;;;;;;;5112801;28;20474;-64
2022/08/08 08:44:18;;;;;;;5.80;2.80;;;;;;;;;;5112818;28;20446;-63
2022/08/08 08:46:46;;;;;;;2.50;2.40;;;;;;;;;;5112670;28;20473;-63
2022/08/08 08:49:13;;;;;;;3.40;2.53;;;;;;;;;;5112712;28;20456;-64
2022/08/08 08:51:42;;;;;;;3.53;2.33;;;;;;;;;;5112786;28;20453;-64
2022/08/08 08:54:09;;;;;;;5.13;2.30;;;;;;;;;;5112347;28;20446;-62
2022/08/08 08:56:37;;;;;;;3.50;2.30;;;;;;;;;;5112509;28;20469;-59
2022/08/08 08:59:05;;;;;;;3.07;2.77;;;;;;;;;;5112650;28;20445;-58
2022/08/08 09:01:34;;;;;;;4.90;2.67;;;;;;;;;;5112577;28;20479;-58
2022/08/08 09:04:03;;;;;;;4.70;2.70;;;;;;;;;;5112116;28;20449;-60
2022/08/08 09:06:32;;;;;;;2.57;2.37;;;;;;;;;;5112310;28;20472;-61
2022/08/08 09:09:02;;;;;;;2.63;2.43;;;;;;;;;;5115225;28;20536;-59
2022/08/08 09:11:31;;;;;;;2.80;2.53;;;;;;;;;;5116220;28;20445;-63
2022/08/08 09:14:00;;;;;;;2.83;2.63;;;;;;;;;;5116152;28;20502;-63
2022/08/08 09:16:28;;;;;;;2.10;2.00;;;;;;;;;;5118583;27;20445;-61
2022/08/08 09:18:55;;;;;;;2.63;2.42;;;;;;;;;;5132933;27;20345;-60
2022/08/08 09:21:22;;;;;;;2.20;2.00;;;;;;;;;;5136499;27;20211;-60
2022/08/08 09:23:50;;;;;;;1.90;1.80;;;;;;;;;;5136518;27;20480;-60
2022/08/08 09:26:20;;;;;;;2.40;1.73;;;;;;;;;;5136594;27;20803;-60
2022/08/08 09:28:47;;;;;;;2.77;2.00;;;;;;;;;;5136284;27;21015;-59
2022/08/08 09:31:14;;;;;;;1.77;1.67;;;;;;;;;;5136382;27;20795;-59
2022/08/08 09:33:45;;;;;;;2.30;1.90;;;;;;;;;;5136360;27;20463;-59
2022/08/08 09:36:18;;;;;;;2.00;1.90;;;;;;;;;;5136415;27;20874;-59
2022/08/08 09:38:48;;;;;;;2.97;1.90;;;;;;;;;;5136101;27;20444;-61
2022/08/08 09:41:17;;;;;;;2.23;1.73;;;;;;;;;;5136324;27;20886;-61
2022/08/08 09:43:49;;;;;;;2.20;1.93;;;;;;;;;;5135828;27;20449;-60
2022/08/08 09:46:17;;;;;;;3.10;1.80;;;;;;;;;;5136031;27;20470;-60
2022/08/08 09:48:45;;;;;;;3.07;2.00;;;;;;;;;;5135727;27;20551;-62
2022/08/08 09:51:15;;;;;;;1.60;1.50;;;;;;;;;;5136097;27;20459;-61
2022/08/08 09:53:42;;;;;;;7.87;2.57;;;;;;;;;;5135882;27;20540;-59
2022/08/08 09:56:11;;;;;;;9.13;2.33;;;;;;;;;;5135895;27;20459;-57
2022/08/08 09:58:39;;;;;;;2.70;1.83;;;;;;;;;;5135475;27;20448;-58
2022/08/08 10:01:07;;;;;;;2.07;1.93;;;;;;;;;;5135824;27;20526;-59
2022/08/08 10:03:35;;;;;;;11.10;3.27;;;;;;;;;;5135823;27;20445;-59
2022/08/08 10:06:14;;;;;;;6.20;2.93;;;;;;;;;;5135666;27;20455;-59
2022/08/08 10:08:45;;;;;;;11.80;2.53;;;;;;;;;;5131456;27;20528;-58
2022/08/08 10:11:12;;;;;;;8.93;2.47;;;;;;;;;;5114810;28;20486;-58
2022/08/08 10:13:39;;;;;;;2.40;1.67;;;;;;;;;;5114832;28;20859;-59
2022/08/08 10:16:06;;;;;;;1.70;1.60;;;;;;;;;;5114570;28;20845;-60
2022/08/08 10:18:34;;;;;;;2.20;2.00;;;;;;;;;;5114278;28;20604;-60
2022/08/08 10:21:03;;;;;;;2.33;1.50;;;;;;;;;;5116849;27;20889;-60
2022/08/08 10:23:42;;;;;;;2.63;2.10;;;;;;;;;;5114682;27;20871;-61
2022/08/08 10:26:10;;;;;;;1.93;1.63;;;;;;;;;;5114917;28;20441;-60
2022/08/08 10:28:37;;;;;;;2.33;2.00;;;;;;;;;;5114520;27;20816;-58
2022/08/08 10:32:30;;;;;;;2.87;1.90;;;;;;;;;;5130688;27;20433;-58
2022/08/08 10:33:53;;;;;;;9.40;2.90;;;;;;;;;;5134872;27;20509;-58
2022/08/08 10:36:24;;;;;;;1.93;1.83;;;;;;;;;;5134208;27;20439;-58
2022/08/08 10:38:53;;;;;;;2.90;2.00;;;;;;;;;;5130728;27;20791;-60
2022/08/08 10:41:23;;;;;;;2.50;2.07;;;;;;;;;;5134829;27;20445;-62
2022/08/08 10:43:51;;;;;;;2.00;1.80;;;;;;;;;;5134785;27;20453;-62
2022/08/08 10:46:26;;;;;;;5.50;2.17;;;;;;;;;;5134700;27;20463;-62
2022/08/08 10:48:53;;;;;;;2.13;1.97;;;;;;;;;;5135062;27;20444;-61
2022/08/08 10:51:20;;;;;;;2.90;2.10;;;;;;;;;;5134972;27;20451;-61
2022/08/08 10:53:49;;;;;;;2.13;2.03;;;;;;;;;;5134812;27;20845;-58
2022/08/08 10:56:17;;;;;;;3.67;2.10;;;;;;;;;;5134767;27;20441;-59
2022/08/08 10:58:44;;;;;;;4.73;2.00;;;;;;;;;;5134426;27;20536;-59
2022/08/08 11:01:13;;;;;;;3.43;1.57;;;;;;;;;;5134492;27;20467;-58
2022/08/08 11:03:41;;;;;;;3.93;2.47;;;;;;;;;;5134411;27;20432;-58
2022/08/08 11:06:08;;;;;;;1.80;1.70;;;;;;;;;;5134531;27;20452;-57
2022/08/08 11:08:35;;;;;;;2.13;1.60;;;;;;;;;;5126353;27;20437;-58
2022/08/08 11:11:02;;;;;;;4.07;1.80;;;;;;;;;;5113853;28;20460;-57
2022/08/08 11:13:38;;;;;;;2.37;2.13;;;;;;;;;;5113699;28;20538;-64
2022/08/08 11:16:05;;;;;;;1.67;1.57;;;;;;;;;;5113792;28;20445;-61
2022/08/08 11:18:34;;;;;;;2.43;2.20;;;;;;;;;;5113878;28;20534;-60
2022/08/08 11:21:02;;;;;;;2.10;1.90;;;;;;;;;;5119086;27;20787;-60
2022/08/08 11:23:32;;;;;;;2.27;2.10;;;;;;;;;;5116170;27;20484;-60
2022/08/08 11:25:59;;;;;;;2.10;2.00;;;;;;;;;;5113541;28;20450;-60
2022/08/08 11:28:27;;;;;;;2.00;1.90;;;;;;;;;;5120238;27;20442;-59
2022/08/08 11:30:57;;;;;;;1.93;1.83;;;;;;;;;;5127330;27;20444;-59
2022/08/08 11:33:25;;;;;;;4.43;3.20;;;;;;;;;;5134321;27;20452;-59
2022/08/08 11:35:52;;;;;;;4.13;2.10;;;;;;;;;;5133937;27;20451;-59
2022/08/08 11:38:19;;;;;;;2.67;2.50;;;;;;;;;;5134024;27;20951;-59
2022/08/08 11:40:46;;;;;;;2.03;1.83;;;;;;;;;;5133842;27;20444;-59
2022/08/08 11:43:13;;;;;;;2.17;1.97;;;;;;;;;;5133916;27;20496;-61
2022/08/08 11:45:41;;;;;;;2.60;2.00;;;;;;;;;;5133881;27;20920;-60
2022/08/08 11:48:10;;;;;;;2.30;1.80;;;;;;;;;;5133617;27;20477;-60
2022/08/08 11:50:37;;;;;;;1.70;1.60;;;;;;;;;;5133855;27;20545;-61
2022/08/08 11:53:05;;;;;;;3.43;1.83;;;;;;;;;;5130258;27;20436;-62
2022/08/08 11:55:34;;;;;;;3.33;2.13;;;;;;;;;;5128000;27;20441;-61
2022/08/08 11:58:02;;;;;;;2.30;2.10;;;;;;;;;;5133295;27;20890;-61
2022/08/08 12:00:29;;;;;;;5.63;1.93;;;;;;;;;;5133596;27;20996;-60
2022/08/08 12:02:58;;;;;;;2.00;1.90;;;;;;;;;;5123093;27;20468;-61
2022/08/08 12:05:33;;;;;;;2.37;1.93;;;;;;;;;;5123921;28;20945;-59
2022/08/08 12:08:00;;;;;;;2.60;2.10;;;;;;;;;;5121426;28;20441;-59
2022/08/08 12:10:29;;;;;;;3.47;2.23;;;;;;;;;;5111409;28;20445;-59
2022/08/08 12:13:02;;;;;;;2.20;2.10;;;;;;;;;;5111964;28;20445;-59
2022/08/08 12:15:31;;;;;;;3.87;1.87;;;;;;;;;;5111100;28;20893;-59
2022/08/08 12:17:58;;;;;;;2.70;2.00;;;;;;;;;;5112074;28;20932;-59
2022/08/08 12:20:25;;;;;;;2.13;2.03;;;;;;;;;;5112645;28;20456;-59
2022/08/08 12:22:54;;;;;;;2.73;1.97;;;;;;;;;;5113024;28;20905;-59
2022/08/08 12:25:22;;;;;;;2.20;2.00;;;;;;;;;;5113125;28;20868;-59
2022/08/08 12:27:49;;;;;;;2.53;2.40;;;;;;;;;;5112970;28;20540;-59
2022/08/08 12:30:16;;;;;;;1.83;1.70;;;;;;;;;;5112872;28;20997;-59
2022/08/08 12:32:44;;;;;;;2.80;2.43;;;;;;;;;;5112657;28;20479;-59
2022/08/08 12:35:19;;;;;;;3.10;2.40;;;;;;;;;;5113091;28;20452;-59
2022/08/08 12:37:47;;;;;;;2.40;2.20;;;;;;;;;;5113000;28;20540;-59
2022/08/08 12:40:16;;;;;;;2.03;1.93;;;;;;;;;;5113013;28;20445;-59
2022/08/08 12:42:46;;;;;;;2.23;1.80;;;;;;;;;;5115171;28;20546;-59
2022/08/08 12:45:13;;;;;;;1.83;1.73;;;;;;;;;;5116664;28;20449;-59
2022/08/08 12:47:40;;;;;;;2.80;1.77;;;;;;;;;;5116786;28;20868;-59
2022/08/08 12:50:08;;;;;;;2.00;1.80;;;;;;;;;;5116902;28;20488;-59
2022/08/08 12:52:38;;;;;;;2.20;2.10;;;;;;;;;;5116663;28;20525;-59
2022/08/08 12:55:06;;;;;;;5.50;2.60;;;;;;;;;;5116724;28;20450;-59
2022/08/08 12:57:35;;;;;;;2.27;2.07;;;;;;;;;;5116454;28;20442;-59
2022/08/08 13:00:02;;;;;;;3.13;2.47;;;;;;;;;;5116447;28;20857;-59
2022/08/08 13:02:29;;;;;;;1.90;1.80;;;;;;;;;;5116410;28;20491;-59
2022/08/08 13:04:57;;;;;;;2.23;2.13;;;;;;;;;;5116338;28;20477;-59
2022/08/08 13:07:33;;;;;;;2.03;1.80;;;;;;;;;;5116338;28;20450;-59
2022/08/08 13:10:02;;;;;;;2.30;2.10;;;;;;;;;;5116343;28;20453;-59
2022/08/08 13:12:32;;;;;;;3.60;2.67;;;;;;;;;;5116159;28;20980;-59
2022/08/08 13:15:02;;;;;;;6.37;2.63;;;;;;;;;;5116286;28;20518;-59
2022/08/08 13:17:30;;;;;;;2.13;2.03;;;;;;;;;;5116429;28;20502;-59
2022/08/08 13:19:58;;;;;;;2.87;2.00;;;;;;;;;;5116076;28;20947;-59
2022/08/08 13:22:25;;;;;;;2.53;1.80;;;;;;;;;;5115973;28;20475;-59
2022/08/08 13:24:52;;;;;;;2.00;1.80;;;;;;;;;;5115919;28;20445;-60
2022/08/08 13:27:20;;;;;;;2.60;1.90;;;;;;;;;;5116086;28;20455;-59
2022/08/08 13:29:48;;;;;;;2.53;2.23;;;;;;;;;;5115945;28;20445;-60
2022/08/08 13:32:18;;;;;;;2.03;1.87;;;;;;;;;;5115896;28;20449;-59
2022/08/08 13:34:44;;;;;;;3.70;2.63;;;;;;;;;;5115873;28;20450;-59
2022/08/08 13:37:11;;;;;;;2.17;2.07;;;;;;;;;;5115634;28;20532;-59
2022/08/08 13:39:38;;;;;;;1.70;1.60;;;;;;;;;;5115791;28;20782;-59
2022/08/08 13:42:05;;;;;;;2.00;1.90;;;;;;;;;;5115722;28;20449;-60
2022/08/08 13:44:33;;;;;;;2.17;2.07;;;;;;;;;;5115750;28;20448;-59
2022/08/08 13:47:00;;;;;;;3.77;2.60;;;;;;;;;;5115448;28;20532;-59
2022/08/08 13:49:30;;;;;;;2.10;1.90;;;;;;;;;;5115505;28;20516;-59
2022/08/08 13:51:57;;;;;;;2.60;2.00;;;;;;;;;;5115440;28;20446;-60
2022/08/08 13:54:26;;;;;;;6.80;2.57;;;;;;;;;;5115791;28;20441;-59
2022/08/08 13:56:59;;;;;;;2.23;2.03;;;;;;;;;;5115612;28;20545;-59
2022/08/08 13:59:30;;;;;;;2.30;2.10;;;;;;;;;;5115428;28;20525;-59
2022/08/08 14:01:57;;;;;;;2.17;2.07;;;;;;;;;;5115365;28;20478;-61
2022/08/08 14:04:25;;;;;;;3.23;1.97;;;;;;;;;;5115114;28;20481;-59
2022/08/08 14:06:59;;;;;;;4.97;2.60;;;;;;;;;;5115331;28;20449;-59
2022/08/08 14:09:32;;;;;;;3.73;2.47;;;;;;;;;;5115392;28;20455;-59
2022/08/08 14:12:00;;;;;;;3.07;2.17;;;;;;;;;;5115346;28;20541;-59
2022/08/08 14:14:37;;;;;;;2.10;2.00;;;;;;;;;;5115035;28;20457;-59
2022/08/08 14:17:04;;;;;;;3.23;2.20;;;;;;;;;;5115027;28;20464;-59
2022/08/08 14:19:32;;;;;;;4.67;2.50;;;;;;;;;;5115226;28;20492;-59
2022/08/08 14:22:01;;;;;;;3.80;2.30;;;;;;;;;;5115163;28;20454;-58
2022/08/08 14:24:31;;;;;;;2.20;2.10;;;;;;;;;;5115026;28;20954;-59
2022/08/08 14:26:58;;;;;;;2.50;1.80;;;;;;;;;;5115100;28;20480;-59
2022/08/08 14:29:26;;;;;;;2.27;2.07;;;;;;;;;;5114765;28;20441;-59
2022/08/08 14:31:52;;;;;;;3.83;1.80;;;;;;;;;;5114950;28;20453;-59
2022/08/08 14:34:19;;;;;;;4.33;2.33;;;;;;;;;;5114948;28;20452;-59
2022/08/08 14:36:49;;;;;;;2.40;1.63;;;;;;;;;;5114691;28;20448;-59
2022/08/08 14:39:19;;;;;;;2.27;2.17;;;;;;;;;;5114751;28;20450;-59
2022/08/08 14:41:46;;;;;;;3.20;2.20;;;;;;;;;;5114565;28;20468;-59
2022/08/08 14:44:13;;;;;;;2.73;2.13;;;;;;;;;;5114643;28;20526;-59
2022/08/08 14:46:40;;;;;;;2.73;2.00;;;;;;;;;;5114348;28;20810;-60
2022/08/08 14:49:11;;;;;;;2.87;2.63;;;;;;;;;;5114554;28;20450;-59
2022/08/08 14:51:39;;;;;;;2.70;1.60;;;;;;;;;;5114701;28;20502;-59
2022/08/08 14:54:06;;;;;;;2.73;2.20;;;;;;;;;;5114350;28;20541;-59
2022/08/08 14:56:36;;;;;;;2.67;2.10;;;;;;;;;;5114363;28;20489;-59
2022/08/08 14:59:03;;;;;;;2.30;1.90;;;;;;;;;;5114573;28;20457;-59
2022/08/08 15:01:31;;;;;;;2.33;2.13;;;;;;;;;;5114373;28;20441;-59
2022/08/08 15:03:59;;;;;;;3.47;2.23;;;;;;;;;;5114209;28;20482;-59
2022/08/08 15:06:26;;;;;;;2.20;2.00;;;;;;;;;;5113090;28;20524;-59